sensor_id;sensor_type;location;lat;lon;timestamp;temperature;humidity
74416;SHT31;62850;42.428;25.618;2023-02-15T00:00:26;4.30;58.47
74416;SHT31;62850;42.428;25.618;2023-02-15T00:02:51;4.25;58.67
74416;SHT31;62850;42.428;25.618;2023-02-15T00:05:17;4.34;58.42
74416;SHT31;62850;42.428;25.618;2023-02-15T00:07:42;4.34;58.76
74416;SHT31;62850;42.428;25.618;2023-02-15T00:10:08;4.30;58.76
74416;SHT31;62850;42.428;25.618;2023-02-15T00:12:34;4.34;58.88
74416;SHT31;62850;42.428;25.618;2023-02-15T00:14:59;4.31;58.79
74416;SHT31;62850;42.428;25.618;2023-02-15T00:17:27;4.20;59.09
74416;SHT31;62850;42.428;25.618;2023-02-15T00:19:53;4.30;59.08
74416;SHT31;62850;42.428;25.618;2023-02-15T00:22:18;4.33;58.63
74416;SHT31;62850;42.428;25.618;2023-02-15T00:24:45;4.45;58.73
74416;SHT31;62850;42.428;25.618;2023-02-15T00:27:10;4.52;58.19
74416;SHT31;62850;42.428;25.618;2023-02-15T00:29:36;4.58;58.13
74416;SHT31;62850;42.428;25.618;2023-02-15T00:32:01;4.54;57.94
74416;SHT31;62850;42.428;25.618;2023-02-15T00:34:27;4.61;57.89
74416;SHT31;62850;42.428;25.618;2023-02-15T00:36:53;4.41;58.09
74416;SHT31;62850;42.428;25.618;2023-02-15T00:39:19;4.38;58.49
74416;SHT31;62850;42.428;25.618;2023-02-15T00:41:45;4.25;58.54
74416;SHT31;62850;42.428;25.618;2023-02-15T00:44:12;4.13;58.84
74416;SHT31;62850;42.428;25.618;2023-02-15T00:46:37;4.07;59.25
74416;SHT31;62850;42.428;25.618;2023-02-15T00:49:04;4.02;59.37
74416;SHT31;62850;42.428;25.618;2023-02-15T00:51:30;4.00;59.22
74416;SHT31;62850;42.428;25.618;2023-02-15T00:53:56;4.00;58.97
74416;SHT31;62850;42.428;25.618;2023-02-15T00:56:21;4.14;58.86
74416;SHT31;62850;42.428;25.618;2023-02-15T00:58:47;4.18;58.67
74416;SHT31;62850;42.428;25.618;2023-02-15T01:01:18;4.16;58.81
74416;SHT31;62850;42.428;25.618;2023-02-15T01:03:43;4.11;58.73
74416;SHT31;62850;42.428;25.618;2023-02-15T01:06:11;4.07;58.75
74416;SHT31;62850;42.428;25.618;2023-02-15T01:08:36;4.21;58.54
74416;SHT31;62850;42.428;25.618;2023-02-15T01:11:07;4.30;58.28
74416;SHT31;62850;42.428;25.618;2023-02-15T01:13:34;4.34;58.43
74416;SHT31;62850;42.428;25.618;2023-02-15T01:16:00;4.36;58.28
74416;SHT31;62850;42.428;25.618;2023-02-15T01:18:25;4.37;57.98
74416;SHT31;62850;42.428;25.618;2023-02-15T01:20:52;4.36;58.22
74416;SHT31;62850;42.428;25.618;2023-02-15T01:23:17;4.38;57.95
74416;SHT31;62850;42.428;25.618;2023-02-15T01:25:43;4.34;58.08
74416;SHT31;62850;42.428;25.618;2023-02-15T01:28:09;4.37;58.08
74416;SHT31;62850;42.428;25.618;2023-02-15T01:30:34;4.40;58.02
74416;SHT31;62850;42.428;25.618;2023-02-15T01:33:00;4.47;58.03
74416;SHT31;62850;42.428;25.618;2023-02-15T01:35:28;4.47;57.94
74416;SHT31;62850;42.428;25.618;2023-02-15T01:37:55;4.41;58.19
74416;SHT31;62850;42.428;25.618;2023-02-15T01:40:22;4.47;58.10
74416;SHT31;62850;42.428;25.618;2023-02-15T01:42:55;4.31;58.51
74416;SHT31;62850;42.428;25.618;2023-02-15T01:45:25;4.29;58.57
74416;SHT31;62850;42.428;25.618;2023-02-15T01:48:01;4.09;59.03
74416;SHT31;62850;42.428;25.618;2023-02-15T01:50:43;3.99;59.29
74416;SHT31;62850;42.428;25.618;2023-02-15T01:56:13;3.92;59.63
74416;SHT31;62850;42.428;25.618;2023-02-15T01:58:40;3.96;59.42
74416;SHT31;62850;42.428;25.618;2023-02-15T02:01:08;3.90;59.63
74416;SHT31;62850;42.428;25.618;2023-02-15T02:06:14;3.97;59.54
74416;SHT31;62850;42.428;25.618;2023-02-15T02:08:40;3.93;59.60
74416;SHT31;62850;42.428;25.618;2023-02-15T02:11:13;3.86;59.88
74416;SHT31;62850;42.428;25.618;2023-02-15T02:13:40;3.76;60.18
74416;SHT31;62850;42.428;25.618;2023-02-15T02:27:22;3.41;61.22
74416;SHT31;62850;42.428;25.618;2023-02-15T02:36:13;3.24;61.67
74416;SHT31;62850;42.428;25.618;2023-02-15T02:38:57;3.08;62.03
74416;SHT31;62850;42.428;25.618;2023-02-15T02:41:32;3.08;62.17
74416;SHT31;62850;42.428;25.618;2023-02-15T02:46:39;3.01;62.06
74416;SHT31;62850;42.428;25.618;2023-02-15T02:49:08;2.83;62.71
74416;SHT31;62850;42.428;25.618;2023-02-15T02:51:34;2.90;62.56
74416;SHT31;62850;42.428;25.618;2023-02-15T02:54:04;2.89;62.48
74416;SHT31;62850;42.428;25.618;2023-02-15T02:56:44;2.86;62.60
74416;SHT31;62850;42.428;25.618;2023-02-15T02:59:16;2.79;62.89
74416;SHT31;62850;42.428;25.618;2023-02-15T03:01:50;2.75;63.09
74416;SHT31;62850;42.428;25.618;2023-02-15T03:04:27;2.77;63.06
74416;SHT31;62850;42.428;25.618;2023-02-15T03:06:58;2.63;63.48
74416;SHT31;62850;42.428;25.618;2023-02-15T03:09:31;2.56;63.76
74416;SHT31;62850;42.428;25.618;2023-02-15T03:12:11;2.48;64.27
74416;SHT31;62850;42.428;25.618;2023-02-15T03:14:40;2.53;63.90
74416;SHT31;62850;42.428;25.618;2023-02-15T03:17:07;2.59;63.92
74416;SHT31;62850;42.428;25.618;2023-02-15T03:19:35;2.55;64.07
74416;SHT31;62850;42.428;25.618;2023-02-15T03:22:15;2.52;64.32
74416;SHT31;62850;42.428;25.618;2023-02-15T03:24:51;2.62;63.87
74416;SHT31;62850;42.428;25.618;2023-02-15T03:27:23;2.55;64.09
74416;SHT31;62850;42.428;25.618;2023-02-15T03:29:53;2.49;64.13
74416;SHT31;62850;42.428;25.618;2023-02-15T03:32:21;2.48;64.25
74416;SHT31;62850;42.428;25.618;2023-02-15T03:34:47;2.36;64.41
74416;SHT31;62850;42.428;25.618;2023-02-15T03:37:33;2.28;64.85
74416;SHT31;62850;42.428;25.618;2023-02-15T03:40:11;2.34;64.73
74416;SHT31;62850;42.428;25.618;2023-02-15T03:43:12;2.18;65.30
74416;SHT31;62850;42.428;25.618;2023-02-15T03:45:44;2.17;65.21
74416;SHT31;62850;42.428;25.618;2023-02-15T03:48:27;2.13;65.57
74416;SHT31;62850;42.428;25.618;2023-02-15T03:50:58;2.07;65.51
74416;SHT31;62850;42.428;25.618;2023-02-15T03:53:46;2.05;65.62
74416;SHT31;62850;42.428;25.618;2023-02-15T03:56:12;2.00;65.75
74416;SHT31;62850;42.428;25.618;2023-02-15T03:58:38;1.98;65.92
74416;SHT31;62850;42.428;25.618;2023-02-15T04:01:29;1.97;66.07
74416;SHT31;62850;42.428;25.618;2023-02-15T04:04:35;2.11;65.66
74416;SHT31;62850;42.428;25.618;2023-02-15T04:07:02;2.25;65.37
74416;SHT31;62850;42.428;25.618;2023-02-15T04:09:28;2.36;65.24
74416;SHT31;62850;42.428;25.618;2023-02-15T04:12:12;2.56;64.64
74416;SHT31;62850;42.428;25.618;2023-02-15T04:14:37;2.73;64.19
74416;SHT31;62850;42.428;25.618;2023-02-15T04:17:21;2.83;63.88
74416;SHT31;62850;42.428;25.618;2023-02-15T04:19:47;2.97;63.35
74416;SHT31;62850;42.428;25.618;2023-02-15T04:22:31;3.14;62.88
74416;SHT31;62850;42.428;25.618;2023-02-15T04:25:15;3.23;62.25
74416;SHT31;62850;42.428;25.618;2023-02-15T04:27:49;3.32;62.31
74416;SHT31;62850;42.428;25.618;2023-02-15T04:30:17;3.44;61.93
74416;SHT31;62850;42.428;25.618;2023-02-15T04:32:44;3.51;61.74
74416;SHT31;62850;42.428;25.618;2023-02-15T04:35:09;3.52;61.74
74416;SHT31;62850;42.428;25.618;2023-02-15T04:37:36;3.58;61.46
74416;SHT31;62850;42.428;25.618;2023-02-15T04:40:02;3.63;61.25
74416;SHT31;62850;42.428;25.618;2023-02-15T04:42:28;3.66;61.11
74416;SHT31;62850;42.428;25.618;2023-02-15T04:44:54;3.69;60.95
74416;SHT31;62850;42.428;25.618;2023-02-15T04:47:19;3.59;61.13
74416;SHT31;62850;42.428;25.618;2023-02-15T04:49:45;3.42;61.81
74416;SHT31;62850;42.428;25.618;2023-02-15T04:52:10;3.46;61.66
74416;SHT31;62850;42.428;25.618;2023-02-15T04:54:36;3.45;61.82
74416;SHT31;62850;42.428;25.618;2023-02-15T04:57:04;3.39;61.90
74416;SHT31;62850;42.428;25.618;2023-02-15T04:59:29;3.35;61.73
74416;SHT31;62850;42.428;25.618;2023-02-15T05:01:55;3.21;62.34
74416;SHT31;62850;42.428;25.618;2023-02-15T05:04:21;3.10;62.69
74416;SHT31;62850;42.428;25.618;2023-02-15T05:06:49;3.03;63.02
74416;SHT31;62850;42.428;25.618;2023-02-15T05:09:15;3.07;62.87
74416;SHT31;62850;42.428;25.618;2023-02-15T05:11:40;2.97;63.18
74416;SHT31;62850;42.428;25.618;2023-02-15T05:14:06;2.90;63.48
74416;SHT31;62850;42.428;25.618;2023-02-15T05:16:32;2.83;63.95
74416;SHT31;62850;42.428;25.618;2023-02-15T05:18:57;2.84;63.79
74416;SHT31;62850;42.428;25.618;2023-02-15T05:21:23;2.82;63.75
74416;SHT31;62850;42.428;25.618;2023-02-15T05:23:48;2.73;64.10
74416;SHT31;62850;42.428;25.618;2023-02-15T05:26:18;2.73;64.18
74416;SHT31;62850;42.428;25.618;2023-02-15T05:29:02;2.80;64.01
74416;SHT31;62850;42.428;25.618;2023-02-15T05:31:28;2.71;64.29
74416;SHT31;62850;42.428;25.618;2023-02-15T05:33:53;2.63;64.85
74416;SHT31;62850;42.428;25.618;2023-02-15T05:36:19;2.53;65.21
74416;SHT31;62850;42.428;25.618;2023-02-15T05:38:45;2.48;65.17
74416;SHT31;62850;42.428;25.618;2023-02-15T05:41:11;2.32;65.66
74416;SHT31;62850;42.428;25.618;2023-02-15T05:43:37;2.41;65.57
74416;SHT31;62850;42.428;25.618;2023-02-15T05:46:03;2.46;65.39
74416;SHT31;62850;42.428;25.618;2023-02-15T05:48:29;2.55;65.16
74416;SHT31;62850;42.428;25.618;2023-02-15T05:51:09;2.63;64.94
74416;SHT31;62850;42.428;25.618;2023-02-15T05:53:37;2.69;64.76
74416;SHT31;62850;42.428;25.618;2023-02-15T05:56:04;2.77;64.60
74416;SHT31;62850;42.428;25.618;2023-02-15T05:58:33;2.86;64.59
74416;SHT31;62850;42.428;25.618;2023-02-15T06:00:59;2.99;64.22
74416;SHT31;62850;42.428;25.618;2023-02-15T06:03:25;3.05;64.28
74416;SHT31;62850;42.428;25.618;2023-02-15T06:05:53;3.13;64.25
74416;SHT31;62850;42.428;25.618;2023-02-15T06:08:19;3.27;63.60
74416;SHT31;62850;42.428;25.618;2023-02-15T06:10:47;3.32;64.02
74416;SHT31;62850;42.428;25.618;2023-02-15T06:13:13;3.41;63.70
74416;SHT31;62850;42.428;25.618;2023-02-15T06:15:38;3.52;63.37
74416;SHT31;62850;42.428;25.618;2023-02-15T06:18:04;3.62;63.27
74416;SHT31;62850;42.428;25.618;2023-02-15T06:20:29;3.72;63.25
74416;SHT31;62850;42.428;25.618;2023-02-15T06:22:55;3.78;62.50
74416;SHT31;62850;42.428;25.618;2023-02-15T06:25:20;3.86;62.64
74416;SHT31;62850;42.428;25.618;2023-02-15T06:27:46;3.94;62.21
74416;SHT31;62850;42.428;25.618;2023-02-15T06:30:12;3.99;61.86
74416;SHT31;62850;42.428;25.618;2023-02-15T06:32:37;4.07;61.69
74416;SHT31;62850;42.428;25.618;2023-02-15T06:35:03;4.17;61.25
74416;SHT31;62850;42.428;25.618;2023-02-15T06:37:29;4.33;60.68
74416;SHT31;62850;42.428;25.618;2023-02-15T06:39:54;4.47;60.31
74416;SHT31;62850;42.428;25.618;2023-02-15T06:42:21;4.57;60.13
74416;SHT31;62850;42.428;25.618;2023-02-15T06:44:47;4.65;59.94
74416;SHT31;62850;42.428;25.618;2023-02-15T06:47:12;4.71;59.85
74416;SHT31;62850;42.428;25.618;2023-02-15T06:49:38;4.76;59.71
74416;SHT31;62850;42.428;25.618;2023-02-15T06:52:03;4.86;59.57
74416;SHT31;62850;42.428;25.618;2023-02-15T06:54:29;4.93;59.50
74416;SHT31;62850;42.428;25.618;2023-02-15T06:56:55;5.03;59.26
74416;SHT31;62850;42.428;25.618;2023-02-15T06:59:20;5.06;58.92
74416;SHT31;62850;42.428;25.618;2023-02-15T07:01:46;5.16;58.53
74416;SHT31;62850;42.428;25.618;2023-02-15T07:04:11;5.24;58.14
74416;SHT31;62850;42.428;25.618;2023-02-15T07:06:37;5.37;57.68
74416;SHT31;62850;42.428;25.618;2023-02-15T07:09:03;5.48;57.48
74416;SHT31;62850;42.428;25.618;2023-02-15T07:11:30;5.58;56.81
74416;SHT31;62850;42.428;25.618;2023-02-15T07:14:14;5.67;56.69
74416;SHT31;62850;42.428;25.618;2023-02-15T07:16:40;5.68;56.76
74416;SHT31;62850;42.428;25.618;2023-02-15T07:19:06;5.75;56.27
74416;SHT31;62850;42.428;25.618;2023-02-15T07:21:32;5.79;56.41
74416;SHT31;62850;42.428;25.618;2023-02-15T07:23:58;5.90;56.23
74416;SHT31;62850;42.428;25.618;2023-02-15T07:26:24;5.90;55.51
74416;SHT31;62850;42.428;25.618;2023-02-15T07:28:50;5.91;55.41
74416;SHT31;62850;42.428;25.618;2023-02-15T07:31:15;5.97;55.06
74416;SHT31;62850;42.428;25.618;2023-02-15T07:33:41;6.01;54.69
74416;SHT31;62850;42.428;25.618;2023-02-15T07:36:07;6.08;54.66
74416;SHT31;62850;42.428;25.618;2023-02-15T07:38:39;6.16;54.49
74416;SHT31;62850;42.428;25.618;2023-02-15T07:41:10;6.29;54.05
74416;SHT31;62850;42.428;25.618;2023-02-15T07:43:38;6.34;54.14
74416;SHT31;62850;42.428;25.618;2023-02-15T07:46:06;6.42;54.13
74416;SHT31;62850;42.428;25.618;2023-02-15T07:48:37;6.32;55.18
74416;SHT31;62850;42.428;25.618;2023-02-15T07:51:05;6.22;54.86
74416;SHT31;62850;42.428;25.618;2023-02-15T07:53:31;6.16;54.78
74416;SHT31;62850;42.428;25.618;2023-02-15T07:56:01;6.15;54.56
74416;SHT31;62850;42.428;25.618;2023-02-15T07:58:27;6.01;54.70
74416;SHT31;62850;42.428;25.618;2023-02-15T08:01:13;6.02;54.78
74416;SHT31;62850;42.428;25.618;2023-02-15T08:03:39;5.98;54.90
74416;SHT31;62850;42.428;25.618;2023-02-15T08:06:05;5.97;54.96
74416;SHT31;62850;42.428;25.618;2023-02-15T08:08:33;5.97;55.04
74416;SHT31;62850;42.428;25.618;2023-02-15T08:14:07;5.98;55.29
74416;SHT31;62850;42.428;25.618;2023-02-15T08:16:46;6.03;55.47
74416;SHT31;62850;42.428;25.618;2023-02-15T08:21:47;6.30;54.27
74416;SHT31;62850;42.428;25.618;2023-02-15T08:24:15;6.42;53.72
74416;SHT31;62850;42.428;25.618;2023-02-15T08:26:41;6.49;53.68
74416;SHT31;62850;42.428;25.618;2023-02-15T08:29:07;6.57;53.40
74416;SHT31;62850;42.428;25.618;2023-02-15T08:31:33;6.70;53.45
74416;SHT31;62850;42.428;25.618;2023-02-15T08:33:59;6.79;53.64
74416;SHT31;62850;42.428;25.618;2023-02-15T08:36:27;6.81;53.68
74416;SHT31;62850;42.428;25.618;2023-02-15T08:38:54;6.91;53.75
74416;SHT31;62850;42.428;25.618;2023-02-15T08:41:41;7.01;53.41
74416;SHT31;62850;42.428;25.618;2023-02-15T08:44:07;6.94;53.20
74416;SHT31;62850;42.428;25.618;2023-02-15T08:46:35;7.00;53.41
74416;SHT31;62850;42.428;25.618;2023-02-15T08:49:01;7.01;53.23
74416;SHT31;62850;42.428;25.618;2023-02-15T08:51:29;7.02;52.44
74416;SHT31;62850;42.428;25.618;2023-02-15T08:53:56;7.04;52.25
74416;SHT31;62850;42.428;25.618;2023-02-15T08:56:24;7.01;52.42
74416;SHT31;62850;42.428;25.618;2023-02-15T08:58:50;7.04;52.31
74416;SHT31;62850;42.428;25.618;2023-02-15T09:01:18;7.00;52.02
74416;SHT31;62850;42.428;25.618;2023-02-15T09:03:47;6.90;52.10
74416;SHT31;62850;42.428;25.618;2023-02-15T09:06:13;7.00;52.23
74416;SHT31;62850;42.428;25.618;2023-02-15T09:08:39;7.08;52.25
74416;SHT31;62850;42.428;25.618;2023-02-15T09:11:11;7.12;52.16
74416;SHT31;62850;42.428;25.618;2023-02-15T09:13:37;7.19;51.81
74416;SHT31;62850;42.428;25.618;2023-02-15T09:16:06;7.25;51.77
74416;SHT31;62850;42.428;25.618;2023-02-15T09:18:34;7.31;51.78
74416;SHT31;62850;42.428;25.618;2023-02-15T09:21:10;7.35;51.80
74416;SHT31;62850;42.428;25.618;2023-02-15T09:23:36;7.42;51.76
74416;SHT31;62850;42.428;25.618;2023-02-15T09:26:03;7.43;51.78
74416;SHT31;62850;42.428;25.618;2023-02-15T09:28:29;7.43;51.33
74416;SHT31;62850;42.428;25.618;2023-02-15T09:30:54;7.33;51.19
74416;SHT31;62850;42.428;25.618;2023-02-15T09:33:20;7.39;51.31
74416;SHT31;62850;42.428;25.618;2023-02-15T09:35:47;7.55;51.15
74416;SHT31;62850;42.428;25.618;2023-02-15T09:38:12;7.70;51.07
74416;SHT31;62850;42.428;25.618;2023-02-15T09:40:47;7.74;50.64
74416;SHT31;62850;42.428;25.618;2023-02-15T09:48:42;8.08;50.21
74416;SHT31;62850;42.428;25.618;2023-02-15T09:59:36;8.45;49.20
74416;SHT31;62850;42.428;25.618;2023-02-15T10:16:23;8.73;48.30
74416;SHT31;62850;42.428;25.618;2023-02-15T10:19:03;8.73;48.30
74416;SHT31;62850;42.428;25.618;2023-02-15T10:22:14;8.73;47.98
74416;SHT31;62850;42.428;25.618;2023-02-15T10:25:01;8.80;47.82
74416;SHT31;62850;42.428;25.618;2023-02-15T10:27:35;8.80;48.18
74416;SHT31;62850;42.428;25.618;2023-02-15T10:30:10;8.87;47.95
74416;SHT31;62850;42.428;25.618;2023-02-15T10:33:08;8.91;48.24
74416;SHT31;62850;42.428;25.618;2023-02-15T10:44:47;9.19;46.99
74416;SHT31;62850;42.428;25.618;2023-02-15T11:01:13;9.16;45.89
74416;SHT31;62850;42.428;25.618;2023-02-15T11:06:21;9.21;46.55
74416;SHT31;62850;42.428;25.618;2023-02-15T11:08:50;9.10;46.69
74416;SHT31;62850;42.428;25.618;2023-02-15T11:11:29;9.04;46.96
74416;SHT31;62850;42.428;25.618;2023-02-15T11:14:04;9.11;47.11
74416;SHT31;62850;42.428;25.618;2023-02-15T11:16:35;9.11;47.34
74416;SHT31;62850;42.428;25.618;2023-02-15T11:19:34;9.24;47.28
74416;SHT31;62850;42.428;25.618;2023-02-15T11:22:05;9.38;46.90
74416;SHT31;62850;42.428;25.618;2023-02-15T11:24:33;9.47;46.65
74416;SHT31;62850;42.428;25.618;2023-02-15T11:27:10;9.55;46.91
74416;SHT31;62850;42.428;25.618;2023-02-15T11:29:57;9.71;46.26
74416;SHT31;62850;42.428;25.618;2023-02-15T11:32:33;9.82;45.64
74416;SHT31;62850;42.428;25.618;2023-02-15T11:40:30;9.93;45.23
74416;SHT31;62850;42.428;25.618;2023-02-15T11:43:06;9.96;45.15
74416;SHT31;62850;42.428;25.618;2023-02-15T11:45:34;10.05;45.15
74416;SHT31;62850;42.428;25.618;2023-02-15T11:48:00;10.08;45.25
74416;SHT31;62850;42.428;25.618;2023-02-15T11:50:29;10.08;45.42
74416;SHT31;62850;42.428;25.618;2023-02-15T11:53:02;10.03;44.99
74416;SHT31;62850;42.428;25.618;2023-02-15T11:55:29;9.95;45.44
74416;SHT31;62850;42.428;25.618;2023-02-15T12:00:45;9.89;45.78
74416;SHT31;62850;42.428;25.618;2023-02-15T12:03:17;9.82;45.87
74416;SHT31;62850;42.428;25.618;2023-02-15T12:05:45;9.83;46.14
74416;SHT31;62850;42.428;25.618;2023-02-15T12:08:20;9.90;46.06
74416;SHT31;62850;42.428;25.618;2023-02-15T12:13:20;9.93;45.56
74416;SHT31;62850;42.428;25.618;2023-02-15T12:15:48;9.92;45.54
74416;SHT31;62850;42.428;25.618;2023-02-15T12:20:59;9.90;45.36
74416;SHT31;62850;42.428;25.618;2023-02-15T12:23:28;9.95;45.03
74416;SHT31;62850;42.428;25.618;2023-02-15T12:25:56;9.98;44.85
74416;SHT31;62850;42.428;25.618;2023-02-15T12:28:39;10.00;44.74
74416;SHT31;62850;42.428;25.618;2023-02-15T12:33:54;10.09;44.72
74416;SHT31;62850;42.428;25.618;2023-02-15T12:36:22;10.06;44.77
74416;SHT31;62850;42.428;25.618;2023-02-15T12:39:17;10.06;44.89
74416;SHT31;62850;42.428;25.618;2023-02-15T12:42:14;10.02;45.06
74416;SHT31;62850;42.428;25.618;2023-02-15T12:44:34;10.03;44.60
74416;SHT31;62850;42.428;25.618;2023-02-15T12:49:42;10.13;44.31
74416;SHT31;62850;42.428;25.618;2023-02-15T12:54:46;10.05;44.32
74416;SHT31;62850;42.428;25.618;2023-02-15T12:57:23;10.03;44.35
74416;SHT31;62850;42.428;25.618;2023-02-15T13:00:33;10.09;44.30
74416;SHT31;62850;42.428;25.618;2023-02-15T13:02:54;10.14;44.10
74416;SHT31;62850;42.428;25.618;2023-02-15T13:05:39;10.05;44.32
74416;SHT31;62850;42.428;25.618;2023-02-15T13:08:12;10.05;44.52
74416;SHT31;62850;42.428;25.618;2023-02-15T13:10:54;10.10;44.40
74416;SHT31;62850;42.428;25.618;2023-02-15T13:13:51;10.12;44.24
74416;SHT31;62850;42.428;25.618;2023-02-15T13:16:21;10.10;44.09
74416;SHT31;62850;42.428;25.618;2023-02-15T13:18:51;10.14;44.13
74416;SHT31;62850;42.428;25.618;2023-02-15T13:21:21;10.17;44.14
74416;SHT31;62850;42.428;25.618;2023-02-15T13:23:52;10.13;43.83
74416;SHT31;62850;42.428;25.618;2023-02-15T13:26:21;10.06;44.31
74416;SHT31;62850;42.428;25.618;2023-02-15T13:28:50;10.05;44.49
74416;SHT31;62850;42.428;25.618;2023-02-15T13:31:23;10.08;44.44
74416;SHT31;62850;42.428;25.618;2023-02-15T13:33:58;10.09;44.24
74416;SHT31;62850;42.428;25.618;2023-02-15T13:43:20;10.02;44.60
74416;SHT31;62850;42.428;25.618;2023-02-15T13:58:22;9.99;44.67
74416;SHT31;62850;42.428;25.618;2023-02-15T14:01:19;9.95;44.34
74416;SHT31;62850;42.428;25.618;2023-02-15T14:04:02;9.96;44.40
74416;SHT31;62850;42.428;25.618;2023-02-15T14:06:56;9.90;44.82
74416;SHT31;62850;42.428;25.618;2023-02-15T14:12:56;9.98;44.91
74416;SHT31;62850;42.428;25.618;2023-02-15T14:15:34;10.02;44.59
74416;SHT31;62850;42.428;25.618;2023-02-15T14:23:43;9.99;44.76
74416;SHT31;62850;42.428;25.618;2023-02-15T14:26:25;9.98;44.62
74416;SHT31;62850;42.428;25.618;2023-02-15T14:31:47;10.03;44.52
74416;SHT31;62850;42.428;25.618;2023-02-15T14:34:50;10.02;44.52
74416;SHT31;62850;42.428;25.618;2023-02-15T14:37:24;9.90;44.83
74416;SHT31;62850;42.428;25.618;2023-02-15T14:40:00;9.90;44.89
74416;SHT31;62850;42.428;25.618;2023-02-15T14:42:57;9.88;45.05
74416;SHT31;62850;42.428;25.618;2023-02-15T14:45:35;9.89;44.98
74416;SHT31;62850;42.428;25.618;2023-02-15T14:48:30;9.88;44.98
74416;SHT31;62850;42.428;25.618;2023-02-15T14:50:56;9.79;45.43
74416;SHT31;62850;42.428;25.618;2023-02-15T14:53:35;9.72;45.10
74416;SHT31;62850;42.428;25.618;2023-02-15T14:58:35;9.81;45.34
74416;SHT31;62850;42.428;25.618;2023-02-15T15:01:09;9.79;45.25
74416;SHT31;62850;42.428;25.618;2023-02-15T15:03:36;9.79;45.28
74416;SHT31;62850;42.428;25.618;2023-02-15T15:06:24;9.78;45.24
74416;SHT31;62850;42.428;25.618;2023-02-15T15:08:55;9.78;45.24
74416;SHT31;62850;42.428;25.618;2023-02-15T15:14:00;9.78;45.21
74416;SHT31;62850;42.428;25.618;2023-02-15T15:16:48;9.74;45.36
74416;SHT31;62850;42.428;25.618;2023-02-15T15:22:19;9.59;45.39
74416;SHT31;62850;42.428;25.618;2023-02-15T15:48:47;9.19;46.88
74416;SHT31;62850;42.428;25.618;2023-02-15T15:51:18;9.07;47.78
74416;SHT31;62850;42.428;25.618;2023-02-15T15:53:48;8.90;48.42
74416;SHT31;62850;42.428;25.618;2023-02-15T15:56:27;8.76;49.05
74416;SHT31;62850;42.428;25.618;2023-02-15T15:59:03;8.49;49.89
74416;SHT31;62850;42.428;25.618;2023-02-15T16:01:44;8.37;50.25
74416;SHT31;62850;42.428;25.618;2023-02-15T16:04:23;8.24;50.67
74416;SHT31;62850;42.428;25.618;2023-02-15T16:06:50;8.10;50.90
74416;SHT31;62850;42.428;25.618;2023-02-15T16:09:18;8.00;51.32
74416;SHT31;62850;42.428;25.618;2023-02-15T16:11:47;7.79;51.72
74416;SHT31;62850;42.428;25.618;2023-02-15T16:14:25;7.66;51.96
74416;SHT31;62850;42.428;25.618;2023-02-15T16:16:54;7.58;52.23
74416;SHT31;62850;42.428;25.618;2023-02-15T16:19:24;7.46;52.58
74416;SHT31;62850;42.428;25.618;2023-02-15T16:21:51;7.33;52.66
74416;SHT31;62850;42.428;25.618;2023-02-15T16:27:43;6.90;53.88
74416;SHT31;62850;42.428;25.618;2023-02-15T16:32:48;6.92;54.87
74416;SHT31;62850;42.428;25.618;2023-02-15T16:35:17;6.85;54.24
74416;SHT31;62850;42.428;25.618;2023-02-15T16:37:44;6.77;54.44
74416;SHT31;62850;42.428;25.618;2023-02-15T16:40:35;6.71;54.48
74416;SHT31;62850;42.428;25.618;2023-02-15T16:43:06;6.67;54.60
74416;SHT31;62850;42.428;25.618;2023-02-15T16:45:35;6.58;54.74
74416;SHT31;62850;42.428;25.618;2023-02-15T16:48:07;6.56;54.91
74416;SHT31;62850;42.428;25.618;2023-02-15T16:50:36;6.47;54.92
74416;SHT31;62850;42.428;25.618;2023-02-15T16:53:04;6.39;55.40
74416;SHT31;62850;42.428;25.618;2023-02-15T16:55:38;6.32;55.47
74416;SHT31;62850;42.428;25.618;2023-02-15T16:58:06;6.26;55.52
74416;SHT31;62850;42.428;25.618;2023-02-15T17:00:37;6.21;55.65
74416;SHT31;62850;42.428;25.618;2023-02-15T17:08:19;6.11;56.04
74416;SHT31;62850;42.428;25.618;2023-02-15T17:11:16;6.03;56.19
74416;SHT31;62850;42.428;25.618;2023-02-15T17:14:21;5.97;56.41
74416;SHT31;62850;42.428;25.618;2023-02-15T17:16:54;5.81;56.95
74416;SHT31;62850;42.428;25.618;2023-02-15T17:19:26;5.58;57.58
74416;SHT31;62850;42.428;25.618;2023-02-15T17:21:57;5.62;57.57
74416;SHT31;62850;42.428;25.618;2023-02-15T17:24:31;5.55;57.73
74416;SHT31;62850;42.428;25.618;2023-02-15T17:30:00;5.46;57.78
74416;SHT31;62850;42.428;25.618;2023-02-15T17:32:29;5.39;58.03
74416;SHT31;62850;42.428;25.618;2023-02-15T17:35:17;5.40;57.96
74416;SHT31;62850;42.428;25.618;2023-02-15T17:37:50;5.48;57.91
74416;SHT31;62850;42.428;25.618;2023-02-15T17:40:27;5.43;58.14
74416;SHT31;62850;42.428;25.618;2023-02-15T17:42:53;5.33;58.29
74416;SHT31;62850;42.428;25.618;2023-02-15T17:45:20;5.29;58.40
74416;SHT31;62850;42.428;25.618;2023-02-15T17:47:47;5.22;58.63
74416;SHT31;62850;42.428;25.618;2023-02-15T17:50:31;5.16;58.76
74416;SHT31;62850;42.428;25.618;2023-02-15T17:52:57;5.08;58.89
74416;SHT31;62850;42.428;25.618;2023-02-15T17:55:25;4.92;59.33
74416;SHT31;62850;42.428;25.618;2023-02-15T17:58:02;4.96;59.37
74416;SHT31;62850;42.428;25.618;2023-02-15T18:00:30;4.91;59.67
74416;SHT31;62850;42.428;25.618;2023-02-15T18:03:14;4.86;59.87
74416;SHT31;62850;42.428;25.618;2023-02-15T18:05:58;4.82;60.16
74416;SHT31;62850;42.428;25.618;2023-02-15T18:08:42;4.81;60.24
74416;SHT31;62850;42.428;25.618;2023-02-15T18:11:27;4.76;60.36
74416;SHT31;62850;42.428;25.618;2023-02-15T18:14:00;4.73;60.65
74416;SHT31;62850;42.428;25.618;2023-02-15T18:16:28;4.73;60.73
74416;SHT31;62850;42.428;25.618;2023-02-15T18:18:55;4.73;60.54
74416;SHT31;62850;42.428;25.618;2023-02-15T18:21:22;4.65;60.51
74416;SHT31;62850;42.428;25.618;2023-02-15T18:23:48;4.75;60.54
74416;SHT31;62850;42.428;25.618;2023-02-15T18:26:24;4.67;60.54
74416;SHT31;62850;42.428;25.618;2023-02-15T18:28:50;4.67;60.65
74416;SHT31;62850;42.428;25.618;2023-02-15T18:31:16;4.60;60.71
74416;SHT31;62850;42.428;25.618;2023-02-15T18:33:47;4.55;60.90
74416;SHT31;62850;42.428;25.618;2023-02-15T18:36:21;4.64;60.84
74416;SHT31;62850;42.428;25.618;2023-02-15T18:38:47;4.67;60.86
74416;SHT31;62850;42.428;25.618;2023-02-15T18:41:17;4.64;60.81
74416;SHT31;62850;42.428;25.618;2023-02-15T18:43:44;4.67;60.90
74416;SHT31;62850;42.428;25.618;2023-02-15T18:46:10;4.61;60.88
74416;SHT31;62850;42.428;25.618;2023-02-15T18:48:36;4.50;61.17
74416;SHT31;62850;42.428;25.618;2023-02-15T18:51:02;4.27;61.97
74416;SHT31;62850;42.428;25.618;2023-02-15T18:53:27;4.31;61.92
74416;SHT31;62850;42.428;25.618;2023-02-15T18:55:53;4.43;61.48
74416;SHT31;62850;42.428;25.618;2023-02-15T18:58:20;4.51;61.28